Snow/Ice From: 24-10-2018 05:00 Until: 09:00 warning for: Snow/Ice Level: Yellow info button
suomi:
Liikennesää: Ajokeli muuttuu huonoksi aamulla tienpintojen jäätymisen vuoksi.

svenska:
Trafikvädret: Väglaget blir dåligt på morgonen p.g.a. tillfrysning av vägytor.

english:
Traffic weather warning: Bad road conditions are expected in the morning because of ice-covered roads. 


Thunder radar more information blitzortung!


Löydät sääaseman tiedot myös:

European Weather Network

Finland Weather Exchange

Weather Underground

AWEKAS



Weather Underground säähistoriasivu

Päivittäin yhteenveto Tammikuu 23, 2017 Yksiköt:  Metriset    Englantilaiset   Molemmat
« Edellinen Päivä
Seuraava Päivä »
Päivittäin Viikoittain Kuukausittain Vuosittain Mukautettu
  Korkea: Matala: Keskiarvo:
Lämpötila: -17.8 °C -1.6 °C 1 °C
Kastepiste: -17.8 °C -2.8 °C -0.1 °C
Kosteus: Humidity % 89 % 92 %
Tuulen nopeus: 0 km/h 0 km/h 0 km/h
Tuulenpuuska: 0 km/h - -
Tuuli:- - North
Ilmanpaine: 0 hPa 1000.9 hPa -
Sade: 0 mm    
Historical Graphs
 
 
Taulukkotiedot Tammikuu 23, 2017
Aika Lämpötila Kastepiste Ilmanpaine Tuuli Tuulen nopeus Tuulenpuuska Kosteus Sademäärä (tunneittain)
-17.8 °C -17.8 °C 0 hPa Calm     Humidity % 0 mm
00:00 0.2 °C -0.5 °C 1009 hPa Calm     95 % 0 mm
00:15 0.3 °C -0.4 °C 1009 hPa Calm     95 % 0 mm
00:30 0.4 °C -0.3 °C 1008.7 hPa Calm     95 % 0 mm
00:45 0.4 °C -0.3 °C 1008.7 hPa Calm     95 % 0 mm
01:00 0.4 °C -0.3 °C 1008.4 hPa Calm     95 % 0 mm
01:15 0.5 °C -0.4 °C 1008 hPa Calm     94 % 0 mm
01:30 0.6 °C -0.2 °C 1008 hPa Calm     94 % 0 mm
01:45 0.8 °C -0.1 °C 1007.7 hPa Calm     94 % 0 mm
02:00 0.7 °C -0.3 °C 1007.3 hPa Calm     93 % 0 mm
02:15 0.8 °C -0.2 °C 1007.3 hPa Calm     93 % 0 mm
02:30 0.9 °C -0.1 °C 1007.3 hPa Calm     93 % 0 mm
02:45 1 °C 0 °C 1007.3 hPa Calm     93 % 0 mm
03:00 1.1 °C -0.1 °C 1007.3 hPa Calm     92 % 0 mm
03:15 1.1 °C 0 °C 1007 hPa Calm     92 % 0 mm
03:30 1.1 °C -0.1 °C 1007 hPa Calm     92 % 0 mm
03:45 1 °C -0.2 °C 1006.7 hPa Calm     92 % 0 mm
04:00 0.9 °C -0.2 °C 1006.7 hPa Calm     92 % 0 mm
04:15 0.9 °C -0.2 °C 1006.3 hPa Calm     92 % 0 mm
04:30 0.8 °C -0.3 °C 1006 hPa Calm     92 % 0 mm
04:45 0.8 °C -0.4 °C 1005.6 hPa Calm     92 % 0 mm
05:00 0.9 °C -0.3 °C 1005.6 hPa Calm     92 % 0 mm
05:15 1.1 °C -0.1 °C 1005.6 hPa Calm     92 % 0 mm
05:30 1.2 °C 0 °C 1005.3 hPa Calm     92 % 0 mm
05:45 1.3 °C 0.1 °C 1005.3 hPa Calm     92 % 0 mm
06:00 1.4 °C 0.2 °C 1005 hPa Calm     92 % 0 mm
06:15 1.5 °C 0.2 °C 1005 hPa Calm     91 % 0 mm
06:30 1.4 °C 0.1 °C 1004.6 hPa Calm     91 % 0 mm
06:45 1.2 °C 0.1 °C 1004.6 hPa Calm     92 % 0 mm
07:00 1.1 °C -0.1 °C 1004.6 hPa Calm     92 % 0 mm
07:15 1.1 °C 0.1 °C 1004.3 hPa Calm     93 % 0 mm
07:30 1.1 °C 0 °C 1004.3 hPa Calm     92 % 0 mm
07:45 1.2 °C 0.2 °C 1004.3 hPa Calm     93 % 0 mm
08:00 1.2 °C 0.3 °C 1003.9 hPa Calm     94 % 0 mm
08:15 1.2 °C 0.3 °C 1003.6 hPa Calm     94 % 0 mm
08:30 1.2 °C 0.5 °C 1003.6 hPa Calm     95 % 0 mm
08:45 1.4 °C 0.7 °C 1003.6 hPa Calm     95 % 0 mm
09:00 1.7 °C 1 °C 1003.6 hPa Calm     95 % 0 mm
09:15 1.7 °C 1 °C 1003.3 hPa Calm     95 % 0 mm
09:30 1.8 °C 1.1 °C 1003.3 hPa Calm     95 % 0 mm
09:45 1.7 °C 1 °C 1002.9 hPa Calm     95 % 0 mm
10:00 1.5 °C 0.8 °C 1002.6 hPa Calm     95 % 0 mm
10:15 1.5 °C 0.9 °C 1002.6 hPa Calm     96 % 0 mm
10:30 1.5 °C 0.9 °C 1002.6 hPa Calm     96 % 0 mm
10:45 1.6 °C 1 °C 1002.6 hPa Calm     96 % 0 mm
11:00 1.9 °C 1.4 °C 1002.6 hPa Calm     96 % 0 mm
11:15 2.1 °C 1.5 °C 1002.3 hPa Calm     96 % 0 mm
11:30 2.1 °C 1.3 °C 1002.3 hPa Calm     95 % 0 mm
11:45 2 °C 1.3 °C 1001.9 hPa Calm     95 % 0 mm
12:00 2.1 °C 1.4 °C 1001.6 hPa Calm     95 % 0 mm
12:15 2.2 °C 1.3 °C 1001.9 hPa Calm     94 % 0 mm
12:30 2.3 °C 1.4 °C 1001.6 hPa Calm     94 % 0 mm
12:45 2.5 °C 1.5 °C 1001.2 hPa Calm     93 % 0 mm
13:00 2.5 °C 1.3 °C 1001.2 hPa Calm     92 % 0 mm
13:15 2.7 °C 1.3 °C 1001.2 hPa Calm     91 % 0 mm
13:30 2.9 °C 1.5 °C 1001.2 hPa Calm     90 % 0 mm
13:45 2.9 °C 1.3 °C 1001.2 hPa Calm     89 % 0 mm
14:00 2.7 °C 1.1 °C 1001.2 hPa Calm     89 % 0 mm
14:15 2.6 °C 0.9 °C 1001.2 hPa Calm     89 % 0 mm
14:30 2.5 °C 1 °C 1001.2 hPa Calm     90 % 0 mm
14:45 2.3 °C 1 °C 1001.2 hPa Calm     91 % 0 mm
15:00 2.3 °C 1 °C 1001.2 hPa Calm     91 % 0 mm
15:15 2.1 °C 0.9 °C 1000.9 hPa Calm     92 % 0 mm
15:30 1.9 °C 0.7 °C 1000.9 hPa Calm     92 % 0 mm
15:45 1.8 °C 0.8 °C 1001.2 hPa Calm     93 % 0 mm
16:00 1.6 °C 0.6 °C 1001.2 hPa Calm     93 % 0 mm
16:15 1.7 °C 0.7 °C 1001.2 hPa Calm     93 % 0 mm
16:30 1.6 °C 0.6 °C 1001.2 hPa Calm     93 % 0 mm
16:45 1.6 °C 0.6 °C 1001.2 hPa Calm     93 % 0 mm
17:00 1.6 °C 0.5 °C 1001.2 hPa Calm     93 % 0 mm
17:15 1.3 °C 0.3 °C 1001.2 hPa Calm     93 % 0 mm
17:30 1.3 °C 0.3 °C 1001.6 hPa Calm     93 % 0 mm
17:45 1.4 °C 0.4 °C 1001.6 hPa Calm     93 % 0 mm
18:00 1.5 °C 0.3 °C 1001.6 hPa Calm     92 % 0 mm
18:15 1.4 °C 0.1 °C 1001.9 hPa Calm     91 % 0 mm
18:30 1.4 °C 0.1 °C 1002.3 hPa Calm     91 % 0 mm
18:45 1.3 °C 0 °C 1002.3 hPa Calm     91 % 0 mm
19:00 1.1 °C 0 °C 1002.6 hPa Calm     92 % 0 mm
19:15 1.1 °C 0 °C 1002.9 hPa Calm     92 % 0 mm
19:30 1.1 °C 0 °C 1002.9 hPa Calm     92 % 0 mm
19:45 1.2 °C 0 °C 1003.3 hPa Calm     92 % 0 mm
20:00 1.2 °C 0.1 °C 1003.3 hPa Calm     92 % 0 mm
20:15 1.2 °C 0 °C 1003.6 hPa Calm     92 % 0 mm
20:30 0.9 °C -0.2 °C 1003.9 hPa Calm     92 % 0 mm
20:45 0.8 °C -0.4 °C 1003.9 hPa Calm     92 % 0 mm
21:00 0.6 °C -0.5 °C 1004.3 hPa Calm     92 % 0 mm
21:15 0.4 °C -0.7 °C 1004.6 hPa Calm     92 % 0 mm
21:30 0.3 °C -0.8 °C 1005 hPa Calm     92 % 0 mm
21:45 0 °C -1.1 °C 1005.3 hPa Calm     92 % 0 mm
22:00 -0.3 °C -1.4 °C 1005.6 hPa Calm     92 % 0 mm
22:15 -0.4 °C -1.6 °C 1005.6 hPa Calm     92 % 0 mm
22:30 -0.5 °C -1.6 °C 1006 hPa Calm     92 % 0 mm
22:45 -0.8 °C -1.9 °C 1006.7 hPa Calm     92 % 0 mm
23:00 -1 °C -2.3 °C 1007 hPa Calm     91 % 0 mm
23:15 -1.2 °C -2.4 °C 1007 hPa Calm     91 % 0 mm
23:30 -1.5 °C -2.8 °C 1007.3 hPa Calm     91 % 0 mm
23:45 -1.6 °C -2.7 °C 1008 hPa Calm     92 % 0 mm
Esan sääasema
Terveisin Weather Underground - 2.75 mb

Alkuperäinen skripti  Jim McMurry - jmcmurry@mwt.net Sovitettu myös templatelle  Wim van der Kuil - Leuven-Template.eu

Laitteet joita käytämme:

Sääasema
Davis VP2

Sääasemaohjelma
Cumulus

Sääaseman tietokone
Asus EeePC

Palveluntarjoaja
Suncomet

Davis VP2

Cumulus

Asus EeePC

Suncomet